Time;durP1;ratioP1;P1;durP2;ratioP2;P2;SDS_P1;SDS_P2;PMS_P1;PMS_P2;Temp;Humidity;BMP_temperature;BMP_pressure;BME280_temperature;BME280_humidity;BME280_pressure;Samples;Min_cycle;Max_cycle;Signal;HPM_P1;HPM_P2
2022/05/09 00:04:55;;;;;;;16.42;2.63;;;10.60;99.90;;;;;;12480511;28;20132;-40
2022/05/09 00:10:57;;;;;;;9.77;2.65;;;10.50;99.90;;;;;;12479127;28;20053;-39
2022/05/09 00:17:00;;;;;;;8.73;2.33;;;10.50;99.90;;;;;;12483187;28;20095;-39
2022/05/09 00:23:02;;;;;;;10.82;2.38;;;10.70;99.90;;;;;;12479818;28;20056;-39
2022/05/09 00:29:04;;;;;;;7.07;2.35;;;10.70;99.90;;;;;;12475947;28;20731;-39
2022/05/09 00:35:09;;;;;;;10.75;2.10;;;10.70;99.90;;;;;;12477817;28;20048;-40
2022/05/09 00:47:32;;;;;;;12.68;3.08;;;10.60;99.90;;;;;;12477281;28;20057;-39
2022/05/09 00:53:37;;;;;;;8.15;2.50;;;10.60;99.90;;;;;;12475543;28;20075;-40
2022/05/09 00:59:39;;;;;;;11.25;2.95;;;10.50;99.90;;;;;;12478097;28;20042;-40
2022/05/09 01:05:45;;;;;;;11.85;2.70;;;10.50;99.90;;;;;;12477618;28;20099;-38
2022/05/09 01:11:52;;;;;;;9.27;2.55;;;10.50;99.90;;;;;;12475933;28;20180;-39
2022/05/09 01:17:55;;;;;;;12.40;2.80;;;10.40;99.90;;;;;;12459706;28;20088;-40
2022/05/09 01:23:57;;;;;;;7.70;2.72;;;10.40;99.90;;;;;;12478036;28;20057;-38
2022/05/09 01:30:16;;;;;;;11.30;2.67;;;10.40;99.90;;;;;;12477592;28;20508;-39
2022/05/09 01:36:30;;;;;;;7.75;2.70;;;10.20;99.90;;;;;;12475812;28;20053;-39
2022/05/09 01:42:35;;;;;;;12.43;2.95;;;10.10;99.90;;;;;;12478035;28;20175;-38
2022/05/09 01:54:59;;;;;;;8.35;2.58;;;10.00;99.90;;;;;;12483070;28;20790;-39
2022/05/09 02:01:03;;;;;;;13.88;3.38;;;10.00;99.90;;;;;;12481985;28;20132;-38
2022/05/09 02:07:09;;;;;;;11.45;2.88;;;9.90;99.90;;;;;;12484472;28;20053;-39
2022/05/09 02:13:11;;;;;;;10.90;3.20;;;9.60;99.90;;;;;;12482947;28;20497;-40
2022/05/09 02:19:14;;;;;;;7.60;2.83;;;9.50;99.90;;;;;;12485026;28;20502;-39
2022/05/09 02:25:33;;;;;;;10.73;3.17;;;9.40;99.90;;;;;;12481855;28;20131;-39
2022/05/09 02:31:35;;;;;;;9.63;2.92;;;9.40;99.90;;;;;;12484472;28;20060;-39
2022/05/09 02:37:38;;;;;;;10.02;2.80;;;9.30;99.90;;;;;;12486347;28;20064;-39
2022/05/09 02:43:40;;;;;;;9.40;2.60;;;9.20;99.90;;;;;;12485964;28;20065;-38
2022/05/09 02:49:42;;;;;;;10.13;2.65;;;9.30;99.90;;;;;;12485263;28;20049;-39
2022/05/09 02:55:44;;;;;;;10.75;3.08;;;9.20;99.90;;;;;;12482792;28;20041;-39
2022/05/09 03:01:46;;;;;;;9.18;2.97;;;9.00;99.90;;;;;;12482356;28;20049;-38
2022/05/09 03:07:50;;;;;;;12.40;3.00;;;9.00;99.90;;;;;;12482134;28;20095;-40
2022/05/09 03:13:52;;;;;;;11.80;3.58;;;8.90;99.90;;;;;;12464488;28;20632;-39
2022/05/09 03:19:55;;;;;;;17.02;2.83;;;8.90;99.90;;;;;;12482299;28;20531;-39
2022/05/09 03:26:01;;;;;;;9.02;2.42;;;8.90;99.90;;;;;;12481462;28;20041;-38
2022/05/09 03:32:04;;;;;;;11.90;3.33;;;8.60;99.90;;;;;;12480778;28;20513;-40
2022/05/09 03:38:07;;;;;;;6.95;2.80;;;8.50;99.90;;;;;;12480561;28;20509;-39
2022/05/09 03:44:10;;;;;;;9.10;3.03;;;8.50;99.90;;;;;;12481431;28;20061;-39
2022/05/09 03:50:14;;;;;;;10.50;2.50;;;8.50;99.90;;;;;;12478974;28;20049;-39
2022/05/09 03:56:16;;;;;;;6.33;2.80;;;8.50;99.90;;;;;;12462948;28;20038;-38
2022/05/09 04:02:18;;;;;;;9.93;3.08;;;8.50;99.90;;;;;;12479233;28;20335;-38
2022/05/09 04:08:21;;;;;;;11.07;3.47;;;8.40;99.90;;;;;;12480691;28;20500;-38
2022/05/09 04:20:46;;;;;;;9.73;2.92;;;8.40;99.90;;;;;;12480525;28;20486;-38
2022/05/09 04:26:49;;;;;;;10.27;3.05;;;8.30;99.90;;;;;;12480245;28;20058;-38
2022/05/09 04:32:51;;;;;;;10.45;3.38;;;8.30;99.90;;;;;;12478812;28;20187;-39
2022/05/09 04:38:54;;;;;;;10.23;2.88;;;8.40;99.90;;;;;;12477572;28;20049;-40
2022/05/09 04:44:56;;;;;;;10.77;3.97;;;8.40;99.90;;;;;;12474113;28;20080;-39
2022/05/09 04:50:58;;;;;;;9.20;3.30;;;8.60;99.90;;;;;;12477405;28;20512;-38
2022/05/09 04:57:00;;;;;;;12.35;3.22;;;8.60;99.90;;;;;;12480174;28;20041;-40
2022/05/09 05:03:02;;;;;;;15.07;4.10;;;8.70;99.90;;;;;;12477445;28;20059;-39
2022/05/09 05:09:05;;;;;;;12.57;3.38;;;8.90;99.90;;;;;;12478302;28;20528;-39
2022/05/09 05:15:08;;;;;;;11.98;3.22;;;9.10;99.90;;;;;;12480390;28;20490;-39
2022/05/09 05:21:13;;;;;;;11.05;3.72;;;9.30;99.90;;;;;;12488270;28;20097;-39
2022/05/09 05:27:15;;;;;;;8.27;3.05;;;9.40;99.90;;;;;;12486251;28;20670;-40
2022/05/09 05:33:17;;;;;;;11.73;3.65;;;9.50;99.90;;;;;;12482989;28;20080;-39
2022/05/09 05:39:20;;;;;;;9.43;3.78;;;9.90;99.90;;;;;;12486700;28;20052;-39
2022/05/09 05:45:23;;;;;;;15.23;4.20;;;9.90;99.90;;;;;;12485940;28;20395;-40
2022/05/09 05:51:26;;;;;;;12.73;3.72;;;10.10;99.90;;;;;;12484763;28;20106;-39
2022/05/09 05:57:32;;;;;;;10.20;3.88;;;10.20;99.90;;;;;;12486924;28;20489;-39
2022/05/09 06:03:34;;;;;;;10.90;3.50;;;10.30;99.90;;;;;;12486740;28;20057;-40
2022/05/09 06:09:36;;;;;;;9.93;3.80;;;10.30;99.90;;;;;;12486055;28;20076;-39
2022/05/09 06:15:45;;;;;;;12.55;4.07;;;10.40;99.90;;;;;;12487380;28;20088;-39
2022/05/09 06:21:48;;;;;;;13.63;3.97;;;10.50;99.90;;;;;;12486849;28;20049;-39
2022/05/09 06:27:51;;;;;;;12.70;3.78;;;10.50;99.90;;;;;;12487576;28;20045;-39
2022/05/09 06:33:53;;;;;;;9.75;3.22;;;10.70;99.90;;;;;;12487907;28;20520;-40
2022/05/09 06:40:04;;;;;;;7.72;3.00;;;10.90;99.90;;;;;;12487086;28;20056;-39
2022/05/09 06:46:07;;;;;;;10.32;3.50;;;11.00;99.90;;;;;;12488868;28;20076;-41
2022/05/09 06:52:10;;;;;;;6.45;2.95;;;11.20;99.90;;;;;;12487037;28;20064;-39
2022/05/09 06:58:17;;;;;;;7.80;2.97;;;11.30;99.90;;;;;;12487037;28;20049;-41
2022/05/09 07:04:26;;;;;;;11.88;3.58;;;11.40;99.90;;;;;;12485268;28;20631;-39
2022/05/09 07:10:28;;;;;;;9.50;3.33;;;11.50;99.90;;;;;;12485920;28;20057;-40
2022/05/09 07:16:31;;;;;;;11.65;3.35;;;11.60;99.90;;;;;;12485807;28;20145;-40
2022/05/09 07:22:35;;;;;;;11.77;2.92;;;11.90;99.90;;;;;;12486789;28;20129;-40
2022/05/09 07:28:40;;;;;;;10.45;2.90;;;12.00;99.90;;;;;;12487201;28;20596;-39
2022/05/09 07:34:43;;;;;;;9.05;2.67;;;12.20;99.90;;;;;;12484147;28;20041;-41
2022/05/09 07:40:47;;;;;;;7.97;2.97;;;12.40;99.90;;;;;;12486666;28;20106;-40
2022/05/09 07:46:49;;;;;;;9.05;2.75;;;12.60;99.90;;;;;;12485680;28;20646;-39
2022/05/09 07:52:51;;;;;;;8.48;2.58;;;12.60;99.90;;;;;;12484330;28;20132;-39
2022/05/09 07:58:53;;;;;;;9.65;3.30;;;12.90;99.90;;;;;;12486024;28;20045;-39
2022/05/09 08:04:56;;;;;;;9.55;3.17;;;13.10;99.90;;;;;;12484395;28;20505;-40
2022/05/09 08:10:59;;;;;;;7.07;2.58;;;13.40;99.90;;;;;;12484346;28;20049;-39
2022/05/09 08:17:02;;;;;;;13.75;2.45;;;14.00;99.90;;;;;;12481315;28;20045;-41
2022/05/09 08:23:11;;;;;;;13.35;2.50;;;14.60;99.90;;;;;;12475342;28;20144;-39
2022/05/09 08:29:12;;;;;;;8.95;1.98;;;14.90;99.90;;;;;;12473620;28;20057;-41
2022/05/09 08:35:14;;;;;;;6.45;1.83;;;15.80;99.90;;;;;;12471920;28;20136;-39
2022/05/09 08:41:19;;;;;;;8.55;2.08;;;16.20;99.90;;;;;;12477373;28;20140;-41
2022/05/09 08:47:51;;;;;;;7.25;2.08;;;16.50;99.90;;;;;;12476321;28;20049;-40
2022/05/09 08:54:08;;;;;;;7.43;1.85;;;16.90;99.90;;;;;;12481647;28;20056;-40
2022/05/09 09:00:18;;;;;;;8.73;1.60;;;17.20;99.90;;;;;;12486277;28;20050;-39
2022/05/09 09:06:39;;;;;;;7.57;1.95;;;17.40;99.90;;;;;;12480479;28;20083;-39
2022/05/09 09:13:20;;;;;;;6.55;1.60;;;17.60;99.90;;;;;;12483894;28;20106;-39
2022/05/09 09:19:51;;;;;;;6.10;1.52;;;17.70;99.90;;;;;;12479896;28;20046;-41
2022/05/09 09:25:59;;;;;;;4.82;1.65;;;17.80;99.90;;;;;;12481874;28;20442;-41
2022/05/09 09:32:11;;;;;;;6.57;1.70;;;18.20;99.90;;;;;;12482469;28;20664;-40
2022/05/09 09:38:40;;;;;;;5.60;1.77;;;18.40;99.90;;;;;;12477690;28;20099;-40
2022/05/09 09:44:48;;;;;;;7.00;1.63;;;18.80;99.90;;;;;;12478272;28;20046;-39
2022/05/09 09:51:01;;;;;;;7.95;1.75;;;19.00;99.90;;;;;;12483972;28;20690;-40
2022/05/09 09:57:21;;;;;;;8.75;2.15;;;19.30;99.90;;;;;;12484291;28;20455;-39
2022/05/09 10:03:29;;;;;;;9.65;1.98;;;19.40;99.90;;;;;;12482561;28;20045;-40
2022/05/09 10:09:59;;;;;;;7.38;1.95;;;19.50;99.90;;;;;;12482954;28;20080;-39
2022/05/09 10:16:05;;;;;;;7.18;1.80;;;19.60;99.90;;;;;;12481372;28;20053;-40
2022/05/09 10:28:36;;;;;;;6.90;2.15;;;20.10;99.90;;;;;;12479584;28;20058;-39
2022/05/09 10:34:50;;;;;;;9.38;2.08;;;20.10;99.90;;;;;;12476960;28;20061;-41
2022/05/09 10:41:03;;;;;;;7.20;2.00;;;20.40;99.90;;;;;;12480523;28;20535;-41
2022/05/09 10:47:39;;;;;;;10.90;1.97;;;20.60;99.90;;;;;;12476088;28;20042;-39
2022/05/09 10:54:06;;;;;;;7.35;1.95;;;20.80;99.90;;;;;;12474154;28;20430;-40
2022/05/09 11:00:24;;;;;;;5.07;1.65;;;21.00;99.90;;;;;;12480825;28;20072;-39
2022/05/09 11:06:50;;;;;;;3.08;1.63;;;21.40;99.90;;;;;;12475527;28;20413;-39
2022/05/09 11:13:07;;;;;;;8.20;1.70;;;21.40;99.90;;;;;;12472180;28;20178;-39
2022/05/09 11:19:25;;;;;;;5.68;2.20;;;21.80;99.90;;;;;;12474908;28;20387;-41
2022/05/09 11:26:15;;;;;;;5.63;2.10;;;21.90;99.90;;;;;;12477304;28;20085;-39
2022/05/09 11:32:41;;;;;;;5.20;1.80;;;22.00;99.90;;;;;;12469854;28;20094;-41
2022/05/09 11:39:13;;;;;;;7.78;2.20;;;21.80;99.90;;;;;;12475227;28;20049;-40
2022/05/09 11:45:47;;;;;;;5.50;1.70;;;21.60;99.90;;;;;;12478793;28;20052;-39
2022/05/09 11:51:53;;;;;;;9.20;2.17;;;21.90;99.90;;;;;;12479003;28;20049;-39
2022/05/09 11:57:58;;;;;;;6.18;1.90;;;22.00;99.90;;;;;;12473961;28;20037;-41
2022/05/09 12:04:00;;;;;;;5.43;1.95;;;21.80;99.90;;;;;;12474209;28;20056;-39
2022/05/09 12:10:18;;;;;;;7.18;2.47;;;22.00;99.90;;;;;;12478098;28;20049;-39
2022/05/09 12:16:35;;;;;;;6.25;2.17;;;22.10;99.90;;;;;;12477962;28;20685;-40
2022/05/09 12:22:39;;;;;;;6.40;1.80;;;21.90;99.90;;;;;;12476712;28;20049;-39
2022/05/09 12:28:43;;;;;;;8.35;2.00;;;22.40;99.90;;;;;;12472866;28;20144;-41
2022/05/09 12:34:47;;;;;;;5.22;1.90;;;22.60;99.90;;;;;;12474309;28;20053;-41
2022/05/09 12:41:01;;;;;;;5.28;2.08;;;22.30;99.90;;;;;;12458648;28;20048;-39
2022/05/09 12:47:12;;;;;;;5.60;1.73;;;22.00;99.90;;;;;;12475386;28;20064;-41
2022/05/09 12:53:17;;;;;;;4.43;1.70;;;22.60;99.90;;;;;;12474284;28;20132;-39
2022/05/09 12:59:20;;;;;;;5.28;2.13;;;22.90;99.90;;;;;;12476788;28;20049;-42
2022/05/09 13:05:40;;;;;;;6.47;2.45;;;23.20;99.90;;;;;;12473638;28;20046;-41
2022/05/09 13:11:49;;;;;;;8.68;2.65;;;22.90;99.90;;;;;;12474516;28;20061;-41
2022/05/09 13:17:59;;;;;;;8.23;2.30;;;22.70;99.90;;;;;;12478301;28;20443;-40
2022/05/09 13:24:03;;;;;;;4.07;1.85;;;23.10;99.90;;;;;;12478382;28;20093;-41
2022/05/09 13:30:08;;;;;;;4.18;1.92;;;23.30;99.90;;;;;;12475996;28;20104;-40
2022/05/09 13:36:10;;;;;;;4.72;2.00;;;23.50;99.90;;;;;;12480146;28;20247;-40
2022/05/09 13:42:31;;;;;;;5.25;1.85;;;23.40;99.90;;;;;;12484957;28;20187;-40
2022/05/09 13:48:34;;;;;;;4.72;1.80;;;23.40;99.90;;;;;;12486553;28;20053;-42
2022/05/09 13:54:49;;;;;;;6.13;2.38;;;23.50;99.90;;;;;;12480788;28;20053;-41
2022/05/09 14:00:53;;;;;;;5.82;1.83;;;23.30;99.90;;;;;;12480569;28;20087;-40
2022/05/09 14:07:37;;;;;;;4.38;1.90;;;23.20;99.90;;;;;;12482616;28;20490;-39
2022/05/09 14:13:32;;;;;;;5.60;1.88;;;23.20;99.90;;;;;;12479745;28;20081;-40
2022/05/09 14:19:36;;;;;;;5.05;1.50;;;23.20;99.90;;;;;;12480160;28;20056;-40
2022/05/09 14:32:03;;;;;;;6.50;1.92;;;23.10;99.90;;;;;;12478387;28;20049;-39
2022/05/09 14:38:22;;;;;;;5.75;2.10;;;22.60;99.90;;;;;;12466656;28;20479;-41
2022/05/09 14:44:31;;;;;;;4.05;1.95;;;22.60;99.90;;;;;;12480068;28;20099;-39
2022/05/09 14:50:40;;;;;;;5.50;2.03;;;22.60;99.90;;;;;;12478735;28;20054;-39
2022/05/09 15:03:07;;;;;;;3.28;1.70;;;22.90;99.90;;;;;;12477801;28;20046;-39
2022/05/09 15:09:09;;;;;;;7.35;2.20;;;23.00;99.90;;;;;;12479700;28;20084;-39
2022/05/09 15:15:11;;;;;;;4.10;2.03;;;23.00;99.90;;;;;;12480387;28;20107;-41
2022/05/09 15:21:15;;;;;;;4.80;1.92;;;22.70;99.90;;;;;;12477374;28;20137;-39
2022/05/09 15:27:18;;;;;;;6.78;2.33;;;22.00;99.90;;;;;;12481051;28;20414;-39
2022/05/09 15:33:21;;;;;;;7.45;2.05;;;21.60;99.90;;;;;;12477712;28;20046;-40
2022/05/09 15:39:23;;;;;;;5.43;2.00;;;21.50;99.90;;;;;;12478164;28;20553;-40
2022/05/09 15:45:25;;;;;;;5.28;1.80;;;21.90;99.90;;;;;;12478141;28;20064;-40
2022/05/09 15:51:29;;;;;;;3.97;1.60;;;22.20;99.90;;;;;;12479985;28;20046;-39
2022/05/09 15:57:31;;;;;;;4.03;1.80;;;22.60;99.90;;;;;;12480834;28;20079;-40
2022/05/09 16:03:35;;;;;;;6.72;1.90;;;22.50;99.90;;;;;;12477424;28;20523;-40
2022/05/09 16:15:58;;;;;;;3.83;1.80;;;22.60;99.90;;;;;;12475098;28;20064;-40
2022/05/09 16:22:03;;;;;;;4.13;1.60;;;22.60;99.90;;;;;;12474397;28;20052;-39
2022/05/09 16:28:05;;;;;;;4.22;2.00;;;22.70;99.90;;;;;;12476401;28;20053;-41
2022/05/09 16:34:11;;;;;;;5.07;1.88;;;22.70;99.90;;;;;;12472176;28;20061;-39
2022/05/09 16:40:14;;;;;;;4.55;1.55;;;23.10;99.90;;;;;;12474939;28;20046;-39
2022/05/09 16:46:22;;;;;;;4.63;1.67;;;23.40;99.90;;;;;;12476168;28;20080;-42
2022/05/09 16:52:25;;;;;;;6.20;1.65;;;23.30;99.90;;;;;;12473117;28;20099;-39
2022/05/09 16:58:28;;;;;;;5.20;1.80;;;23.40;99.90;;;;;;12477392;28;20083;-39
2022/05/09 17:04:30;;;;;;;4.97;1.80;;;23.30;99.90;;;;;;12473066;28;20421;-39
2022/05/09 17:10:32;;;;;;;4.43;1.60;;;23.20;99.90;;;;;;12475664;28;20425;-39
2022/05/09 17:16:43;;;;;;;5.20;1.60;;;23.40;99.90;;;;;;12484692;28;20053;-39
2022/05/09 17:22:51;;;;;;;4.68;1.80;;;23.60;99.90;;;;;;12483911;28;20080;-41
2022/05/09 17:28:53;;;;;;;5.47;1.77;;;23.60;99.90;;;;;;12484568;28;20153;-39
2022/05/09 17:34:55;;;;;;;4.43;1.80;;;23.70;99.90;;;;;;12482578;28;20045;-39
2022/05/09 17:41:01;;;;;;;6.93;1.75;;;23.70;99.90;;;;;;12479620;28;20053;-41
2022/05/09 17:47:03;;;;;;;3.80;1.70;;;23.80;99.90;;;;;;12485507;28;20666;-39
2022/05/09 17:53:06;;;;;;;4.85;1.90;;;23.60;99.90;;;;;;12481423;28;20124;-39
2022/05/09 17:59:15;;;;;;;6.40;1.90;;;23.10;99.90;;;;;;12478959;28;20075;-39
2022/05/09 18:05:17;;;;;;;3.13;1.58;;;22.70;99.90;;;;;;12482812;28;20053;-39
2022/05/09 18:11:22;;;;;;;5.30;1.90;;;22.10;99.90;;;;;;12481630;28;20061;-39
2022/05/09 18:17:38;;;;;;;5.45;1.90;;;21.60;99.90;;;;;;12483088;28;20540;-39
2022/05/09 18:23:50;;;;;;;5.35;1.70;;;21.10;99.90;;;;;;12480018;28;20099;-40
2022/05/09 18:29:52;;;;;;;6.05;1.90;;;20.90;99.90;;;;;;12480274;28;20046;-38
2022/05/09 18:35:59;;;;;;;3.67;1.80;;;20.60;99.90;;;;;;12479077;28;20084;-40
2022/05/09 18:42:02;;;;;;;6.80;2.20;;;20.30;99.90;;;;;;12478466;28;20465;-39
2022/05/09 18:48:05;;;;;;;6.73;2.00;;;20.00;99.90;;;;;;12481425;28;20486;-40
2022/05/09 18:54:07;;;;;;;5.35;2.17;;;19.60;99.90;;;;;;12479908;28;20107;-39
2022/05/09 19:00:15;;;;;;;5.22;2.00;;;19.40;99.90;;;;;;12477681;28;20048;-40
2022/05/09 19:06:18;;;;;;;5.43;2.28;;;19.00;99.90;;;;;;12479629;28;20136;-40
2022/05/09 19:12:28;;;;;;;4.85;2.15;;;18.80;99.90;;;;;;12481635;28;20426;-41
2022/05/09 19:18:33;;;;;;;4.20;1.98;;;18.60;99.90;;;;;;12480865;28;20049;-38
2022/05/09 19:24:35;;;;;;;4.95;2.03;;;18.30;99.90;;;;;;12478330;28;20568;-42
2022/05/09 19:30:38;;;;;;;7.03;2.28;;;18.20;99.90;;;;;;12480639;28;20094;-39
2022/05/09 19:36:41;;;;;;;4.22;2.15;;;17.90;99.90;;;;;;12480832;28;20195;-38
2022/05/09 19:42:48;;;;;;;4.57;2.10;;;17.70;99.90;;;;;;12478719;28;20508;-40
2022/05/09 19:48:51;;;;;;;4.80;2.28;;;17.40;99.90;;;;;;12478921;28;20470;-38
2022/05/09 19:54:53;;;;;;;5.93;2.10;;;17.10;99.90;;;;;;12468544;28;20071;-39
2022/05/09 20:00:56;;;;;;;7.82;2.25;;;16.80;99.90;;;;;;12475273;28;20516;-39
2022/05/09 20:07:00;;;;;;;4.18;2.40;;;16.70;99.90;;;;;;12476967;28;20052;-39
2022/05/09 20:13:04;;;;;;;3.75;2.30;;;16.50;99.90;;;;;;12474959;28;20085;-40
2022/05/09 20:19:06;;;;;;;;;;;16.30;99.90;;;;;;12471682;28;20422;-40
2022/05/09 20:25:13;;;;;;;4.95;2.30;;;16.30;99.90;;;;;;12471254;28;20335;-41
2022/05/09 20:31:16;;;;;;;6.57;2.38;;;16.20;99.90;;;;;;12477386;28;20144;-40
2022/05/09 20:37:29;;;;;;;6.68;2.60;;;16.30;99.90;;;;;;12476604;28;20045;-39
2022/05/09 20:43:32;;;;;;;4.38;2.75;;;16.60;99.90;;;;;;12473138;28;20072;-39
2022/05/09 20:49:35;;;;;;;4.90;2.90;;;16.90;99.90;;;;;;12486378;28;20063;-40
2022/05/09 20:55:37;;;;;;;6.50;3.35;;;17.10;99.90;;;;;;12483605;28;20530;-39
2022/05/09 21:01:38;;;;;;;5.50;2.90;;;17.30;99.90;;;;;;12486666;28;20106;-39
2022/05/09 21:07:41;;;;;;;5.10;2.53;;;17.40;99.90;;;;;;12482115;28;20103;-40
2022/05/09 21:13:43;;;;;;;5.88;2.50;;;17.40;99.90;;;;;;12485045;28;20160;-40
2022/05/09 21:19:46;;;;;;;4.72;2.38;;;17.40;99.90;;;;;;12487643;28;20084;-40
2022/05/09 21:25:48;;;;;;;3.80;2.20;;;17.40;99.90;;;;;;12485637;28;20096;-38
2022/05/09 21:31:50;;;;;;;3.63;2.20;;;17.40;99.90;;;;;;12484483;28;20776;-40
2022/05/09 21:37:52;;;;;;;5.97;2.30;;;17.40;99.90;;;;;;12464715;28;20079;-40
2022/05/09 21:43:58;;;;;;;4.15;2.20;;;17.30;99.90;;;;;;12481305;28;20077;-39
2022/05/09 21:50:00;;;;;;;5.13;2.40;;;17.20;99.90;;;;;;12481932;28;20080;-38
2022/05/09 21:56:03;;;;;;;4.57;2.10;;;17.20;99.90;;;;;;12483982;28;20049;-40
2022/05/09 22:02:06;;;;;;;6.10;2.00;;;17.30;99.90;;;;;;12482125;28;20178;-40
2022/05/09 22:08:08;;;;;;;3.67;1.95;;;17.30;99.90;;;;;;12481810;28;20405;-39
2022/05/09 22:14:11;;;;;;;4.30;2.13;;;17.40;99.90;;;;;;12480366;28;20061;-39
2022/05/09 22:20:12;;;;;;;4.82;2.13;;;17.50;99.90;;;;;;12478137;28;20041;-39
2022/05/09 22:26:16;;;;;;;3.80;1.90;;;17.50;99.90;;;;;;12482620;28;20102;-40
2022/05/09 22:32:24;;;;;;;6.40;1.97;;;17.40;99.90;;;;;;12478457;28;20494;-40
2022/05/09 22:38:30;;;;;;;4.47;1.90;;;17.30;99.90;;;;;;12480825;28;20167;-39
2022/05/09 22:44:47;;;;;;;4.80;1.88;;;17.40;99.90;;;;;;12479378;28;20489;-38
2022/05/09 22:50:50;;;;;;;6.18;2.05;;;17.40;99.90;;;;;;12479491;28;20102;-40
2022/05/09 22:56:55;;;;;;;4.90;2.05;;;17.40;99.90;;;;;;12479834;28;20057;-41
2022/05/09 23:03:01;;;;;;;7.32;2.15;;;17.40;99.90;;;;;;12481486;28;20573;-40
2022/05/09 23:09:05;;;;;;;6.85;2.15;;;17.40;99.90;;;;;;12482045;28;20053;-40
2022/05/09 23:15:08;;;;;;;5.40;2.42;;;17.40;99.90;;;;;;12479119;28;20466;-41
2022/05/09 23:21:10;;;;;;;6.32;2.40;;;17.40;99.90;;;;;;12475600;28;20048;-40
2022/05/09 23:27:13;;;;;;;9.25;2.70;;;17.30;99.90;;;;;;12479710;28;21135;-40
2022/05/09 23:33:21;;;;;;;4.68;2.10;;;17.30;99.90;;;;;;12473558;28;20041;-38
2022/05/09 23:39:23;;;;;;;5.70;2.35;;;17.30;99.90;;;;;;12475243;28;20041;-38
2022/05/09 23:45:27;;;;;;;6.78;2.38;;;17.20;99.90;;;;;;12475406;28;20187;-38
2022/05/09 23:51:30;;;;;;;8.15;1.70;;;17.20;99.90;;;;;;12476847;28;20090;-38
2022/05/09 23:57:32;;;;;;;6.25;2.30;;;17.20;99.90;;;;;;12479653;28;20060;-40
